Terminal Aerodrome Forecast
Issued by NWS Melbourne, FL

Home | Current Version | Previous Version | Text Only | Print | Product List | Glossary On
Versions: 1 2 3 4 5 6 7 8 9 10 11 12 13 14 15 16 17 18
000
FTUS42 KMLB 181700
TAFVRB
TAF
KVRB 181737Z 1818/1918 13015KT P6SM VCSH FEW024 OVC150
     FM182000 14015KT P6SM SHRA VCTS SCT020 BKN040CB OVC060
     FM190500 16008KT P6SM VCSH BKN030 OVC050
     FM191400 22014KT P6SM VCSH SCT015 OVC040=

USA.gov is the U.S. government's official web portal to all federal, state and local government web resources and services.